sensor_id;sensor_type;location;lat;lon;timestamp;P1;durP1;ratioP1;P2;durP2;ratioP2
62832;SDS011;48891;49.220;6.920;2023-11-21T00:01:43;23.08;;;16.73;;
62832;SDS011;48891;49.220;6.920;2023-11-21T00:04:08;22.67;;;16.42;;
62832;SDS011;48891;49.220;6.920;2023-11-21T00:06:33;24.10;;;17.17;;
62832;SDS011;48891;49.220;6.920;2023-11-21T00:08:58;21.40;;;15.52;;
62832;SDS011;48891;49.220;6.920;2023-11-21T00:11:24;21.98;;;16.38;;
62832;SDS011;48891;49.220;6.920;2023-11-21T00:13:49;22.55;;;17.27;;
62832;SDS011;48891;49.220;6.920;2023-11-21T00:16:15;21.95;;;15.60;;
62832;SDS011;48891;49.220;6.920;2023-11-21T00:18:40;20.35;;;15.73;;
62832;SDS011;48891;49.220;6.920;2023-11-21T00:21:05;21.35;;;15.45;;
62832;SDS011;48891;49.220;6.920;2023-11-21T00:23:31;19.52;;;15.32;;
62832;SDS011;48891;49.220;6.920;2023-11-21T00:25:56;22.00;;;16.02;;
62832;SDS011;48891;49.220;6.920;2023-11-21T00:28:21;20.40;;;14.80;;
62832;SDS011;48891;49.220;6.920;2023-11-21T00:30:46;20.63;;;15.85;;
62832;SDS011;48891;49.220;6.920;2023-11-21T00:33:12;23.75;;;15.77;;
62832;SDS011;48891;49.220;6.920;2023-11-21T00:35:37;21.73;;;15.80;;
62832;SDS011;48891;49.220;6.920;2023-11-21T00:38:02;20.17;;;14.70;;
62832;SDS011;48891;49.220;6.920;2023-11-21T00:40:27;21.88;;;15.98;;
62832;SDS011;48891;49.220;6.920;2023-11-21T00:42:52;22.27;;;16.15;;
62832;SDS011;48891;49.220;6.920;2023-11-21T00:45:18;21.70;;;16.25;;
62832;SDS011;48891;49.220;6.920;2023-11-21T00:47:43;20.85;;;16.27;;
62832;SDS011;48891;49.220;6.920;2023-11-21T00:50:08;19.02;;;14.68;;
62832;SDS011;48891;49.220;6.920;2023-11-21T00:52:33;22.08;;;15.48;;
62832;SDS011;48891;49.220;6.920;2023-11-21T00:54:59;19.77;;;14.77;;
62832;SDS011;48891;49.220;6.920;2023-11-21T00:57:24;22.20;;;15.95;;
62832;SDS011;48891;49.220;6.920;2023-11-21T00:59:49;20.90;;;15.80;;
62832;SDS011;48891;49.220;6.920;2023-11-21T01:02:15;20.85;;;15.13;;
62832;SDS011;48891;49.220;6.920;2023-11-21T01:04:40;21.35;;;15.07;;
62832;SDS011;48891;49.220;6.920;2023-11-21T01:07:05;19.77;;;14.90;;
62832;SDS011;48891;49.220;6.920;2023-11-21T01:09:30;19.42;;;14.18;;
62832;SDS011;48891;49.220;6.920;2023-11-21T01:11:56;20.42;;;14.73;;
62832;SDS011;48891;49.220;6.920;2023-11-21T01:14:21;20.17;;;14.13;;
62832;SDS011;48891;49.220;6.920;2023-11-21T01:16:46;19.30;;;14.20;;
62832;SDS011;48891;49.220;6.920;2023-11-21T01:19:11;21.80;;;14.13;;
62832;SDS011;48891;49.220;6.920;2023-11-21T01:21:36;20.88;;;14.73;;
62832;SDS011;48891;49.220;6.920;2023-11-21T01:24:02;18.38;;;13.57;;
62832;SDS011;48891;49.220;6.920;2023-11-21T01:26:28;17.90;;;13.77;;
62832;SDS011;48891;49.220;6.920;2023-11-21T01:28:53;18.35;;;13.23;;
62832;SDS011;48891;49.220;6.920;2023-11-21T01:31:18;18.65;;;13.52;;
62832;SDS011;48891;49.220;6.920;2023-11-21T01:33:43;18.92;;;13.45;;
62832;SDS011;48891;49.220;6.920;2023-11-21T01:36:09;19.98;;;13.75;;
62832;SDS011;48891;49.220;6.920;2023-11-21T01:38:34;17.38;;;13.30;;
62832;SDS011;48891;49.220;6.920;2023-11-21T01:41:00;18.33;;;13.50;;
62832;SDS011;48891;49.220;6.920;2023-11-21T01:43:25;19.63;;;13.63;;
62832;SDS011;48891;49.220;6.920;2023-11-21T01:45:50;19.27;;;13.27;;
62832;SDS011;48891;49.220;6.920;2023-11-21T01:48:15;19.00;;;13.13;;
62832;SDS011;48891;49.220;6.920;2023-11-21T01:50:41;17.13;;;12.65;;
62832;SDS011;48891;49.220;6.920;2023-11-21T01:53:06;17.05;;;12.70;;
62832;SDS011;48891;49.220;6.920;2023-11-21T01:55:31;17.35;;;12.73;;
62832;SDS011;48891;49.220;6.920;2023-11-21T01:57:58;17.02;;;13.00;;
62832;SDS011;48891;49.220;6.920;2023-11-21T02:00:23;17.45;;;12.80;;
62832;SDS011;48891;49.220;6.920;2023-11-21T02:02:48;16.45;;;12.02;;
62832;SDS011;48891;49.220;6.920;2023-11-21T02:05:14;15.35;;;11.85;;
62832;SDS011;48891;49.220;6.920;2023-11-21T02:07:41;16.65;;;11.60;;
62832;SDS011;48891;49.220;6.920;2023-11-21T02:10:07;17.17;;;12.15;;
62832;SDS011;48891;49.220;6.920;2023-11-21T02:12:32;16.40;;;11.68;;
62832;SDS011;48891;49.220;6.920;2023-11-21T02:14:57;15.70;;;11.90;;
62832;SDS011;48891;49.220;6.920;2023-11-21T02:17:23;15.50;;;11.65;;
62832;SDS011;48891;49.220;6.920;2023-11-21T02:19:48;16.98;;;12.35;;
62832;SDS011;48891;49.220;6.920;2023-11-21T02:22:13;14.25;;;11.25;;
62832;SDS011;48891;49.220;6.920;2023-11-21T02:24:40;17.52;;;12.30;;
62832;SDS011;48891;49.220;6.920;2023-11-21T02:27:06;14.52;;;10.43;;
62832;SDS011;48891;49.220;6.920;2023-11-21T02:29:31;14.27;;;11.63;;
62832;SDS011;48891;49.220;6.920;2023-11-21T02:31:56;16.05;;;11.35;;
62832;SDS011;48891;49.220;6.920;2023-11-21T02:34:22;16.70;;;11.90;;
62832;SDS011;48891;49.220;6.920;2023-11-21T02:36:48;17.73;;;12.00;;
62832;SDS011;48891;49.220;6.920;2023-11-21T02:39:13;16.52;;;11.18;;
62832;SDS011;48891;49.220;6.920;2023-11-21T02:41:39;14.48;;;11.20;;
62832;SDS011;48891;49.220;6.920;2023-11-21T02:44:07;15.68;;;11.32;;
62832;SDS011;48891;49.220;6.920;2023-11-21T02:46:33;15.50;;;11.15;;
62832;SDS011;48891;49.220;6.920;2023-11-21T02:49:02;15.05;;;11.77;;
62832;SDS011;48891;49.220;6.920;2023-11-21T02:51:28;14.95;;;10.82;;
62832;SDS011;48891;49.220;6.920;2023-11-21T02:53:54;15.60;;;11.10;;
62832;SDS011;48891;49.220;6.920;2023-11-21T02:56:20;13.77;;;10.25;;
62832;SDS011;48891;49.220;6.920;2023-11-21T02:58:45;14.38;;;10.45;;
62832;SDS011;48891;49.220;6.920;2023-11-21T03:01:10;14.23;;;10.65;;
62832;SDS011;48891;49.220;6.920;2023-11-21T03:03:35;14.00;;;10.23;;
62832;SDS011;48891;49.220;6.920;2023-11-21T03:06:00;14.07;;;10.43;;
62832;SDS011;48891;49.220;6.920;2023-11-21T03:08:26;13.73;;;10.10;;
62832;SDS011;48891;49.220;6.920;2023-11-21T03:10:51;15.30;;;10.68;;
62832;SDS011;48891;49.220;6.920;2023-11-21T03:13:16;14.85;;;10.93;;
62832;SDS011;48891;49.220;6.920;2023-11-21T03:15:41;14.77;;;10.45;;
62832;SDS011;48891;49.220;6.920;2023-11-21T03:18:07;13.98;;;9.93;;
62832;SDS011;48891;49.220;6.920;2023-11-21T03:20:32;14.52;;;10.68;;
62832;SDS011;48891;49.220;6.920;2023-11-21T03:22:57;14.38;;;10.77;;
62832;SDS011;48891;49.220;6.920;2023-11-21T03:25:22;15.68;;;10.15;;
62832;SDS011;48891;49.220;6.920;2023-11-21T03:27:48;13.27;;;9.82;;
62832;SDS011;48891;49.220;6.920;2023-11-21T03:30:13;13.77;;;9.80;;
62832;SDS011;48891;49.220;6.920;2023-11-21T03:32:38;12.40;;;9.88;;
62832;SDS011;48891;49.220;6.920;2023-11-21T03:35:04;12.73;;;8.98;;
62832;SDS011;48891;49.220;6.920;2023-11-21T03:37:29;13.95;;;9.57;;
62832;SDS011;48891;49.220;6.920;2023-11-21T03:39:55;12.43;;;9.90;;
62832;SDS011;48891;49.220;6.920;2023-11-21T03:42:21;11.88;;;9.18;;
62832;SDS011;48891;49.220;6.920;2023-11-21T03:44:46;12.10;;;9.50;;
62832;SDS011;48891;49.220;6.920;2023-11-21T03:47:11;14.07;;;9.45;;
62832;SDS011;48891;49.220;6.920;2023-11-21T03:49:37;11.43;;;8.65;;
62832;SDS011;48891;49.220;6.920;2023-11-21T03:52:02;13.38;;;9.20;;
62832;SDS011;48891;49.220;6.920;2023-11-21T03:54:28;12.93;;;9.13;;
62832;SDS011;48891;49.220;6.920;2023-11-21T03:56:53;13.10;;;9.23;;
62832;SDS011;48891;49.220;6.920;2023-11-21T03:59:18;12.80;;;8.73;;
62832;SDS011;48891;49.220;6.920;2023-11-21T04:01:43;12.88;;;9.00;;
62832;SDS011;48891;49.220;6.920;2023-11-21T04:04:09;12.38;;;8.90;;
62832;SDS011;48891;49.220;6.920;2023-11-21T04:06:34;12.25;;;8.75;;
62832;SDS011;48891;49.220;6.920;2023-11-21T04:08:59;11.98;;;7.95;;
62832;SDS011;48891;49.220;6.920;2023-11-21T04:11:24;11.15;;;9.18;;
62832;SDS011;48891;49.220;6.920;2023-11-21T04:13:50;12.63;;;8.95;;
62832;SDS011;48891;49.220;6.920;2023-11-21T04:16:15;11.48;;;8.52;;
62832;SDS011;48891;49.220;6.920;2023-11-21T04:18:40;11.13;;;8.07;;
62832;SDS011;48891;49.220;6.920;2023-11-21T04:21:06;12.32;;;8.73;;
62832;SDS011;48891;49.220;6.920;2023-11-21T04:23:32;12.18;;;8.95;;
62832;SDS011;48891;49.220;6.920;2023-11-21T04:25:57;11.77;;;8.63;;
62832;SDS011;48891;49.220;6.920;2023-11-21T04:28:23;11.07;;;8.07;;
62832;SDS011;48891;49.220;6.920;2023-11-21T04:30:48;12.48;;;8.32;;
62832;SDS011;48891;49.220;6.920;2023-11-21T04:33:13;12.73;;;8.50;;
62832;SDS011;48891;49.220;6.920;2023-11-21T04:35:39;12.45;;;9.18;;
62832;SDS011;48891;49.220;6.920;2023-11-21T04:38:04;11.18;;;7.70;;
62832;SDS011;48891;49.220;6.920;2023-11-21T04:40:29;10.98;;;7.97;;
62832;SDS011;48891;49.220;6.920;2023-11-21T04:42:54;11.55;;;7.95;;
62832;SDS011;48891;49.220;6.920;2023-11-21T04:45:19;11.63;;;8.15;;
62832;SDS011;48891;49.220;6.920;2023-11-21T04:47:45;10.30;;;7.72;;
62832;SDS011;48891;49.220;6.920;2023-11-21T04:50:10;11.45;;;8.15;;
62832;SDS011;48891;49.220;6.920;2023-11-21T04:52:35;10.70;;;7.57;;
62832;SDS011;48891;49.220;6.920;2023-11-21T04:55:01;10.88;;;7.57;;
62832;SDS011;48891;49.220;6.920;2023-11-21T04:57:26;9.70;;;7.78;;
62832;SDS011;48891;49.220;6.920;2023-11-21T04:59:51;10.40;;;7.75;;
62832;SDS011;48891;49.220;6.920;2023-11-21T05:02:17;10.90;;;7.72;;
62832;SDS011;48891;49.220;6.920;2023-11-21T05:04:42;9.48;;;7.00;;
62832;SDS011;48891;49.220;6.920;2023-11-21T05:07:07;9.88;;;7.10;;
62832;SDS011;48891;49.220;6.920;2023-11-21T05:09:32;10.52;;;7.72;;
62832;SDS011;48891;49.220;6.920;2023-11-21T05:11:58;9.77;;;6.82;;
62832;SDS011;48891;49.220;6.920;2023-11-21T05:14:23;10.38;;;7.20;;
62832;SDS011;48891;49.220;6.920;2023-11-21T05:16:48;11.07;;;8.15;;
62832;SDS011;48891;49.220;6.920;2023-11-21T05:19:13;8.75;;;6.57;;
62832;SDS011;48891;49.220;6.920;2023-11-21T05:21:39;8.88;;;6.68;;
62832;SDS011;48891;49.220;6.920;2023-11-21T05:24:04;8.95;;;6.53;;
62832;SDS011;48891;49.220;6.920;2023-11-21T05:26:30;9.93;;;6.80;;
62832;SDS011;48891;49.220;6.920;2023-11-21T05:28:55;9.63;;;6.57;;
62832;SDS011;48891;49.220;6.920;2023-11-21T05:31:20;10.95;;;7.60;;
62832;SDS011;48891;49.220;6.920;2023-11-21T05:33:46;9.68;;;7.47;;
62832;SDS011;48891;49.220;6.920;2023-11-21T05:36:12;8.75;;;6.63;;
62832;SDS011;48891;49.220;6.920;2023-11-21T05:38:37;9.82;;;6.97;;
62832;SDS011;48891;49.220;6.920;2023-11-21T05:41:02;11.00;;;7.53;;
62832;SDS011;48891;49.220;6.920;2023-11-21T05:43:28;10.73;;;7.05;;
62832;SDS011;48891;49.220;6.920;2023-11-21T05:45:53;8.68;;;6.22;;
62832;SDS011;48891;49.220;6.920;2023-11-21T05:48:18;9.18;;;6.60;;
62832;SDS011;48891;49.220;6.920;2023-11-21T05:50:43;9.23;;;6.88;;
62832;SDS011;48891;49.220;6.920;2023-11-21T05:53:09;8.20;;;6.13;;
62832;SDS011;48891;49.220;6.920;2023-11-21T05:55:34;9.55;;;6.97;;
62832;SDS011;48891;49.220;6.920;2023-11-21T05:57:59;9.57;;;6.97;;
62832;SDS011;48891;49.220;6.920;2023-11-21T06:00:24;9.02;;;6.43;;
62832;SDS011;48891;49.220;6.920;2023-11-21T06:02:50;9.88;;;6.65;;
62832;SDS011;48891;49.220;6.920;2023-11-21T06:05:16;9.50;;;6.65;;
62832;SDS011;48891;49.220;6.920;2023-11-21T06:07:43;9.38;;;6.57;;
62832;SDS011;48891;49.220;6.920;2023-11-21T06:10:08;9.52;;;7.03;;
62832;SDS011;48891;49.220;6.920;2023-11-21T06:12:35;9.63;;;6.68;;
62832;SDS011;48891;49.220;6.920;2023-11-21T06:15:02;9.38;;;6.20;;
62832;SDS011;48891;49.220;6.920;2023-11-21T06:17:27;9.52;;;6.43;;
62832;SDS011;48891;49.220;6.920;2023-11-21T06:19:53;8.70;;;6.25;;
62832;SDS011;48891;49.220;6.920;2023-11-21T06:22:18;9.13;;;6.75;;
62832;SDS011;48891;49.220;6.920;2023-11-21T06:24:43;9.20;;;6.45;;
62832;SDS011;48891;49.220;6.920;2023-11-21T06:27:08;9.38;;;6.57;;
62832;SDS011;48891;49.220;6.920;2023-11-21T06:29:33;8.55;;;6.03;;
62832;SDS011;48891;49.220;6.920;2023-11-21T06:31:59;9.23;;;6.63;;
62832;SDS011;48891;49.220;6.920;2023-11-21T06:34:24;8.63;;;6.10;;
62832;SDS011;48891;49.220;6.920;2023-11-21T06:36:49;9.88;;;6.57;;
62832;SDS011;48891;49.220;6.920;2023-11-21T06:39:14;9.00;;;6.55;;
62832;SDS011;48891;49.220;6.920;2023-11-21T06:41:40;10.27;;;6.82;;
62832;SDS011;48891;49.220;6.920;2023-11-21T06:44:05;8.63;;;6.25;;
62832;SDS011;48891;49.220;6.920;2023-11-21T06:46:30;9.15;;;6.70;;
62832;SDS011;48891;49.220;6.920;2023-11-21T06:48:55;9.32;;;6.57;;
62832;SDS011;48891;49.220;6.920;2023-11-21T06:51:21;9.68;;;6.20;;
62832;SDS011;48891;49.220;6.920;2023-11-21T06:53:46;12.13;;;7.15;;
62832;SDS011;48891;49.220;6.920;2023-11-21T06:56:17;8.85;;;6.85;;
62832;SDS011;48891;49.220;6.920;2023-11-21T06:58:46;9.82;;;6.32;;
62832;SDS011;48891;49.220;6.920;2023-11-21T07:01:12;9.55;;;6.28;;
62832;SDS011;48891;49.220;6.920;2023-11-21T07:03:38;9.95;;;6.68;;
62832;SDS011;48891;49.220;6.920;2023-11-21T07:06:03;9.90;;;7.18;;
62832;SDS011;48891;49.220;6.920;2023-11-21T07:08:29;9.82;;;6.80;;
62832;SDS011;48891;49.220;6.920;2023-11-21T07:10:54;9.65;;;6.53;;
62832;SDS011;48891;49.220;6.920;2023-11-21T07:13:19;8.73;;;6.63;;
62832;SDS011;48891;49.220;6.920;2023-11-21T07:15:44;9.52;;;7.00;;
62832;SDS011;48891;49.220;6.920;2023-11-21T07:18:10;8.77;;;6.50;;
62832;SDS011;48891;49.220;6.920;2023-11-21T07:20:35;8.65;;;6.78;;
62832;SDS011;48891;49.220;6.920;2023-11-21T07:23:00;9.23;;;6.85;;
62832;SDS011;48891;49.220;6.920;2023-11-21T07:25:25;8.82;;;6.63;;
62832;SDS011;48891;49.220;6.920;2023-11-21T07:27:51;10.18;;;6.65;;
62832;SDS011;48891;49.220;6.920;2023-11-21T07:30:16;10.07;;;6.93;;
62832;SDS011;48891;49.220;6.920;2023-11-21T07:32:41;8.95;;;6.57;;
62832;SDS011;48891;49.220;6.920;2023-11-21T07:35:07;9.63;;;6.97;;
62832;SDS011;48891;49.220;6.920;2023-11-21T07:37:32;9.65;;;6.85;;
62832;SDS011;48891;49.220;6.920;2023-11-21T07:39:57;9.38;;;7.45;;
62832;SDS011;48891;49.220;6.920;2023-11-21T07:42:23;10.13;;;7.65;;
62832;SDS011;48891;49.220;6.920;2023-11-21T07:44:48;10.88;;;7.40;;
62832;SDS011;48891;49.220;6.920;2023-11-21T07:47:14;10.77;;;7.82;;
62832;SDS011;48891;49.220;6.920;2023-11-21T07:49:39;10.43;;;7.10;;
62832;SDS011;48891;49.220;6.920;2023-11-21T07:52:04;11.07;;;8.27;;
62832;SDS011;48891;49.220;6.920;2023-11-21T07:54:29;11.05;;;7.85;;
62832;SDS011;48891;49.220;6.920;2023-11-21T07:56:55;10.05;;;7.22;;
62832;SDS011;48891;49.220;6.920;2023-11-21T07:59:20;9.10;;;7.38;;
62832;SDS011;48891;49.220;6.920;2023-11-21T08:01:45;10.95;;;7.82;;
62832;SDS011;48891;49.220;6.920;2023-11-21T08:04:10;12.75;;;9.23;;
62832;SDS011;48891;49.220;6.920;2023-11-21T08:06:36;11.10;;;7.82;;
62832;SDS011;48891;49.220;6.920;2023-11-21T08:09:01;11.32;;;8.18;;
62832;SDS011;48891;49.220;6.920;2023-11-21T08:11:26;10.70;;;8.52;;
62832;SDS011;48891;49.220;6.920;2023-11-21T08:13:51;11.20;;;8.52;;
62832;SDS011;48891;49.220;6.920;2023-11-21T08:16:16;12.05;;;8.88;;
62832;SDS011;48891;49.220;6.920;2023-11-21T08:18:42;11.50;;;8.60;;
62832;SDS011;48891;49.220;6.920;2023-11-21T08:21:07;12.10;;;9.35;;
62832;SDS011;48891;49.220;6.920;2023-11-21T08:23:32;12.70;;;9.40;;
62832;SDS011;48891;49.220;6.920;2023-11-21T08:25:58;11.77;;;8.75;;
62832;SDS011;48891;49.220;6.920;2023-11-21T08:28:23;12.43;;;9.43;;
62832;SDS011;48891;49.220;6.920;2023-11-21T08:30:48;11.43;;;9.27;;
62832;SDS011;48891;49.220;6.920;2023-11-21T08:33:13;13.38;;;9.55;;
62832;SDS011;48891;49.220;6.920;2023-11-21T08:35:39;12.18;;;9.55;;
62832;SDS011;48891;49.220;6.920;2023-11-21T08:38:04;11.70;;;9.15;;
62832;SDS011;48891;49.220;6.920;2023-11-21T08:40:29;12.15;;;9.40;;
62832;SDS011;48891;49.220;6.920;2023-11-21T08:42:55;12.95;;;10.18;;
62832;SDS011;48891;49.220;6.920;2023-11-21T08:45:21;12.48;;;10.10;;
62832;SDS011;48891;49.220;6.920;2023-11-21T08:47:47;13.45;;;10.40;;
62832;SDS011;48891;49.220;6.920;2023-11-21T08:50:12;14.50;;;10.20;;
62832;SDS011;48891;49.220;6.920;2023-11-21T08:52:40;12.63;;;10.63;;
62832;SDS011;48891;49.220;6.920;2023-11-21T08:57:32;14.00;;;10.65;;
62832;SDS011;48891;49.220;6.920;2023-11-21T08:59:57;14.38;;;11.20;;
62832;SDS011;48891;49.220;6.920;2023-11-21T09:02:22;13.85;;;11.05;;
62832;SDS011;48891;49.220;6.920;2023-11-21T09:04:48;13.57;;;10.95;;
62832;SDS011;48891;49.220;6.920;2023-11-21T09:07:13;15.00;;;11.77;;
62832;SDS011;48891;49.220;6.920;2023-11-21T09:09:38;14.75;;;11.60;;
62832;SDS011;48891;49.220;6.920;2023-11-21T09:12:04;15.55;;;11.50;;
62832;SDS011;48891;49.220;6.920;2023-11-21T09:14:29;14.25;;;12.18;;
62832;SDS011;48891;49.220;6.920;2023-11-21T09:16:54;16.73;;;12.23;;
62832;SDS011;48891;49.220;6.920;2023-11-21T09:19:20;16.10;;;12.57;;
62832;SDS011;48891;49.220;6.920;2023-11-21T09:21:45;16.13;;;12.45;;
62832;SDS011;48891;49.220;6.920;2023-11-21T09:24:10;14.93;;;11.52;;
62832;SDS011;48891;49.220;6.920;2023-11-21T09:26:35;16.23;;;12.32;;
62832;SDS011;48891;49.220;6.920;2023-11-21T09:29:01;16.00;;;13.27;;
62832;SDS011;48891;49.220;6.920;2023-11-21T09:31:26;16.55;;;13.18;;
62832;SDS011;48891;49.220;6.920;2023-11-21T09:33:51;15.88;;;12.60;;
62832;SDS011;48891;49.220;6.920;2023-11-21T09:36:16;17.58;;;13.32;;
62832;SDS011;48891;49.220;6.920;2023-11-21T09:38:41;16.85;;;13.23;;
62832;SDS011;48891;49.220;6.920;2023-11-21T09:41:10;16.70;;;13.55;;
62832;SDS011;48891;49.220;6.920;2023-11-21T09:43:55;17.92;;;14.15;;
62832;SDS011;48891;49.220;6.920;2023-11-21T09:46:22;17.38;;;13.05;;
62832;SDS011;48891;49.220;6.920;2023-11-21T09:48:49;17.23;;;14.02;;
62832;SDS011;48891;49.220;6.920;2023-11-21T09:51:16;22.80;;;15.75;;
62832;SDS011;48891;49.220;6.920;2023-11-21T09:53:44;17.00;;;14.13;;
62832;SDS011;48891;49.220;6.920;2023-11-21T09:56:11;17.40;;;14.27;;
62832;SDS011;48891;49.220;6.920;2023-11-21T09:58:36;20.98;;;15.45;;
62832;SDS011;48891;49.220;6.920;2023-11-21T10:01:02;21.65;;;16.20;;
62832;SDS011;48891;49.220;6.920;2023-11-21T10:03:28;21.17;;;16.25;;
62832;SDS011;48891;49.220;6.920;2023-11-21T10:05:53;22.35;;;16.52;;
62832;SDS011;48891;49.220;6.920;2023-11-21T10:08:22;20.47;;;15.33;;
62832;SDS011;48891;49.220;6.920;2023-11-21T10:10:49;17.85;;;15.25;;
62832;SDS011;48891;49.220;6.920;2023-11-21T10:13:18;19.73;;;15.77;;
62832;SDS011;48891;49.220;6.920;2023-11-21T10:15:43;21.33;;;16.08;;
62832;SDS011;48891;49.220;6.920;2023-11-21T10:18:09;22.27;;;16.25;;
62832;SDS011;48891;49.220;6.920;2023-11-21T10:20:34;21.33;;;16.23;;
62832;SDS011;48891;49.220;6.920;2023-11-21T10:23:00;20.08;;;16.27;;
62832;SDS011;48891;49.220;6.920;2023-11-21T10:25:25;21.42;;;17.00;;
62832;SDS011;48891;49.220;6.920;2023-11-21T10:27:56;18.85;;;15.68;;
62832;SDS011;48891;49.220;6.920;2023-11-21T10:30:24;22.10;;;16.52;;
62832;SDS011;48891;49.220;6.920;2023-11-21T10:32:58;22.10;;;16.05;;
62832;SDS011;48891;49.220;6.920;2023-11-21T10:35:24;20.13;;;16.25;;
62832;SDS011;48891;49.220;6.920;2023-11-21T10:37:50;24.27;;;16.52;;
62832;SDS011;48891;49.220;6.920;2023-11-21T10:40:27;21.42;;;16.17;;
62832;SDS011;48891;49.220;6.920;2023-11-21T10:42:52;24.10;;;16.45;;
62832;SDS011;48891;49.220;6.920;2023-11-21T10:45:18;23.48;;;16.65;;
62832;SDS011;48891;49.220;6.920;2023-11-21T10:47:44;21.85;;;16.08;;
62832;SDS011;48891;49.220;6.920;2023-11-21T10:50:09;21.98;;;15.63;;
62832;SDS011;48891;49.220;6.920;2023-11-21T10:52:35;21.73;;;16.75;;
62832;SDS011;48891;49.220;6.920;2023-11-21T10:55:00;22.88;;;17.30;;
62832;SDS011;48891;49.220;6.920;2023-11-21T10:57:25;21.85;;;16.50;;
62832;SDS011;48891;49.220;6.920;2023-11-21T10:59:51;25.27;;;17.55;;
62832;SDS011;48891;49.220;6.920;2023-11-21T11:02:25;23.30;;;17.85;;
62832;SDS011;48891;49.220;6.920;2023-11-21T11:04:51;20.77;;;16.50;;
62832;SDS011;48891;49.220;6.920;2023-11-21T11:07:17;23.73;;;17.50;;
62832;SDS011;48891;49.220;6.920;2023-11-21T11:09:43;19.58;;;16.30;;
62832;SDS011;48891;49.220;6.920;2023-11-21T11:12:09;21.02;;;16.73;;
62832;SDS011;48891;49.220;6.920;2023-11-21T11:14:35;21.25;;;17.83;;
62832;SDS011;48891;49.220;6.920;2023-11-21T11:17:01;23.42;;;17.70;;
62832;SDS011;48891;49.220;6.920;2023-11-21T11:19:26;21.88;;;16.65;;
62832;SDS011;48891;49.220;6.920;2023-11-21T11:27:25;21.40;;;16.70;;
62832;SDS011;48891;49.220;6.920;2023-11-21T11:35:43;21.85;;;16.73;;
62832;SDS011;48891;49.220;6.920;2023-11-21T11:38:21;21.67;;;16.50;;
62832;SDS011;48891;49.220;6.920;2023-11-21T11:40:47;22.55;;;17.25;;
62832;SDS011;48891;49.220;6.920;2023-11-21T11:43:12;21.42;;;16.88;;
62832;SDS011;48891;49.220;6.920;2023-11-21T11:45:38;20.85;;;16.42;;
62832;SDS011;48891;49.220;6.920;2023-11-21T11:48:05;20.52;;;16.70;;
62832;SDS011;48891;49.220;6.920;2023-11-21T11:50:30;21.85;;;17.95;;
62832;SDS011;48891;49.220;6.920;2023-11-21T11:53:11;22.38;;;16.65;;
62832;SDS011;48891;49.220;6.920;2023-11-21T11:55:38;21.10;;;16.95;;
62832;SDS011;48891;49.220;6.920;2023-11-21T11:58:04;21.20;;;15.95;;
62832;SDS011;48891;49.220;6.920;2023-11-21T12:00:34;21.87;;;17.50;;
62832;SDS011;48891;49.220;6.920;2023-11-21T12:03:00;20.60;;;16.10;;
62832;SDS011;48891;49.220;6.920;2023-11-21T12:05:26;22.48;;;16.55;;
62832;SDS011;48891;49.220;6.920;2023-11-21T12:07:53;22.30;;;17.10;;
62832;SDS011;48891;49.220;6.920;2023-11-21T12:10:20;21.92;;;15.82;;
62832;SDS011;48891;49.220;6.920;2023-11-21T12:12:51;21.58;;;16.08;;
62832;SDS011;48891;49.220;6.920;2023-11-21T12:15:17;20.25;;;15.70;;
62832;SDS011;48891;49.220;6.920;2023-11-21T12:17:44;18.77;;;15.93;;
62832;SDS011;48891;49.220;6.920;2023-11-21T12:20:10;19.33;;;15.80;;
62832;SDS011;48891;49.220;6.920;2023-11-21T12:22:37;21.08;;;17.13;;
62832;SDS011;48891;49.220;6.920;2023-11-21T12:25:02;19.67;;;15.75;;
62832;SDS011;48891;49.220;6.920;2023-11-21T12:27:27;21.60;;;15.75;;
62832;SDS011;48891;49.220;6.920;2023-11-21T12:29:53;19.65;;;14.52;;
62832;SDS011;48891;49.220;6.920;2023-11-21T12:32:18;21.35;;;16.02;;
62832;SDS011;48891;49.220;6.920;2023-11-21T12:34:43;21.38;;;16.20;;
62832;SDS011;48891;49.220;6.920;2023-11-21T12:37:09;21.33;;;15.48;;
62832;SDS011;48891;49.220;6.920;2023-11-21T12:39:34;19.90;;;15.80;;
62832;SDS011;48891;49.220;6.920;2023-11-21T12:42:00;18.98;;;15.38;;
62832;SDS011;48891;49.220;6.920;2023-11-21T12:44:25;21.90;;;17.15;;
62832;SDS011;48891;49.220;6.920;2023-11-21T12:46:50;18.98;;;14.82;;
62832;SDS011;48891;49.220;6.920;2023-11-21T12:49:15;21.88;;;15.68;;
62832;SDS011;48891;49.220;6.920;2023-11-21T12:51:41;21.70;;;15.75;;
62832;SDS011;48891;49.220;6.920;2023-11-21T12:54:06;22.23;;;15.90;;
62832;SDS011;48891;49.220;6.920;2023-11-21T12:56:31;22.52;;;15.70;;
62832;SDS011;48891;49.220;6.920;2023-11-21T12:58:57;20.30;;;15.20;;
62832;SDS011;48891;49.220;6.920;2023-11-21T13:01:24;22.92;;;16.50;;
62832;SDS011;48891;49.220;6.920;2023-11-21T13:03:50;19.23;;;14.93;;
62832;SDS011;48891;49.220;6.920;2023-11-21T13:06:16;19.48;;;15.13;;
62832;SDS011;48891;49.220;6.920;2023-11-21T13:08:43;20.70;;;14.95;;
62832;SDS011;48891;49.220;6.920;2023-11-21T13:11:09;20.38;;;15.98;;
62832;SDS011;48891;49.220;6.920;2023-11-21T13:13:35;22.00;;;15.90;;
62832;SDS011;48891;49.220;6.920;2023-11-21T13:16:01;20.25;;;14.77;;
62832;SDS011;48891;49.220;6.920;2023-11-21T13:18:27;19.88;;;15.40;;
62832;SDS011;48891;49.220;6.920;2023-11-21T13:20:57;21.45;;;15.82;;
62832;SDS011;48891;49.220;6.920;2023-11-21T13:23:23;23.20;;;16.20;;
62832;SDS011;48891;49.220;6.920;2023-11-21T13:25:49;19.33;;;15.25;;
62832;SDS011;48891;49.220;6.920;2023-11-21T13:28:14;19.88;;;15.07;;
62832;SDS011;48891;49.220;6.920;2023-11-21T13:30:39;20.20;;;15.38;;
62832;SDS011;48891;49.220;6.920;2023-11-21T13:33:05;20.48;;;15.75;;
62832;SDS011;48891;49.220;6.920;2023-11-21T13:35:31;22.45;;;15.63;;
62832;SDS011;48891;49.220;6.920;2023-11-21T13:38:03;20.25;;;15.48;;
62832;SDS011;48891;49.220;6.920;2023-11-21T13:40:30;22.42;;;16.38;;
62832;SDS011;48891;49.220;6.920;2023-11-21T13:42:55;23.23;;;16.35;;
62832;SDS011;48891;49.220;6.920;2023-11-21T13:45:21;21.48;;;16.13;;
62832;SDS011;48891;49.220;6.920;2023-11-21T13:47:47;21.80;;;15.93;;
62832;SDS011;48891;49.220;6.920;2023-11-21T13:50:12;20.95;;;16.38;;
62832;SDS011;48891;49.220;6.920;2023-11-21T13:52:37;20.73;;;15.90;;
62832;SDS011;48891;49.220;6.920;2023-11-21T13:55:03;22.80;;;16.42;;
62832;SDS011;48891;49.220;6.920;2023-11-21T13:57:28;21.58;;;15.98;;
62832;SDS011;48891;49.220;6.920;2023-11-21T13:59:53;21.15;;;16.30;;
62832;SDS011;48891;49.220;6.920;2023-11-21T14:02:19;24.13;;;16.67;;
62832;SDS011;48891;49.220;6.920;2023-11-21T14:04:44;22.20;;;16.65;;
62832;SDS011;48891;49.220;6.920;2023-11-21T14:07:09;22.30;;;16.20;;
62832;SDS011;48891;49.220;6.920;2023-11-21T14:09:34;22.05;;;15.73;;
62832;SDS011;48891;49.220;6.920;2023-11-21T14:12:00;21.08;;;15.75;;
62832;SDS011;48891;49.220;6.920;2023-11-21T14:14:26;22.55;;;16.50;;
62832;SDS011;48891;49.220;6.920;2023-11-21T14:16:52;20.63;;;16.27;;
62832;SDS011;48891;49.220;6.920;2023-11-21T14:19:18;24.05;;;17.60;;
62832;SDS011;48891;49.220;6.920;2023-11-21T14:21:43;25.13;;;18.08;;
62832;SDS011;48891;49.220;6.920;2023-11-21T14:24:09;23.45;;;16.92;;
62832;SDS011;48891;49.220;6.920;2023-11-21T14:26:35;24.92;;;18.10;;
62832;SDS011;48891;49.220;6.920;2023-11-21T14:29:00;23.88;;;17.60;;
62832;SDS011;48891;49.220;6.920;2023-11-21T14:31:26;23.05;;;17.65;;
62832;SDS011;48891;49.220;6.920;2023-11-21T14:33:51;23.33;;;17.77;;